Terminal Aerodrome Forecast
Issued by NWS Portland, OR

Home | Current Version | Previous Version | Text Only | Print | Product List | Glossary On
Versions: 1 2 3 4 5 6 7 8 9 10 11 12 13 14 15 16 17 18
000
FTUS46 KPQR 271900 AAA
TAFTTD
TAF AMD
KTTD 271900Z 2719/2818 21010KT P6SM -SHRA SCT015 BKN025 OVC035
     FM272000 23008KT P6SM -SHRA SCT015 BKN025 OVC035
     FM280500 22004KT P6SM -SHRA OVC015
     FM281200 22004KT P6SM VCSH OVC015=

USA.gov is the U.S. government's official web portal to all federal, state and local government web resources and services.